In Rescue
 
Open Full Screen Window  High Contrast Mode
Wind Gusting 00 knots
06
March 04, 2021 3:56 AM EST
Weather Information
Wind Direction
  350 °
Wind Speed
  06 kt (7 mph)
Wind Gust
  00 kt (0 mph)
Altimeter
30.15 in
Visibility
10 SM
Temperature
-02° C
28° F
Dewpoint
-07° C
19° F
Humidity
69%
1hr Rain Fall
00.00 in.
24hr Rain Fall
00.00 in.
Sky Condition
Overcast @ 2,200 ft
MVFR

METAR KMOP 040856Z AUTO 35006KT 10SM OVC022 M02/M07 A3015 RMK AO2 T10251073

FAA Disclaimer: The data displayed is for advisory purposes only and is not to be used for flight planning or operations.